Time;durP1;ratioP1;P1;durP2;ratioP2;P2;SDS_P1;SDS_P2;PMS_P1;PMS_P2;Temp;Humidity;BMP_temperature;BMP_pressure;BME280_temperature;BME280_humidity;BME280_pressure;Samples;Min_cycle;Max_cycle;Signal;HPM_P1;HPM_P2
2022/10/11 00:02:02;;;;;;;;;;;;;;;;;;5059673;28;20346;-69
2022/10/11 00:04:27;;;;;;;;;;;;;;;;;;5072912;28;20384;-68
2022/10/11 00:06:52;;;;;;;;;;;;;;;;;;5082065;28;19916;-69
2022/10/11 00:09:17;;;;;;;;;;;;;;;;;;5071426;28;19920;-68
2022/10/11 00:11:42;;;;;;;;;;;;;;;;;;5069789;28;20288;-68
2022/10/11 00:14:07;;;;;;;;;;;;;;;;;;5098835;28;20016;-68
2022/10/11 00:16:33;;;;;;;;;;;;;;;;;;5090530;28;19917;-69
2022/10/11 00:18:58;;;;;;;;;;;;;;;;;;5066220;28;19916;-68
2022/10/11 00:21:23;;;;;;;;;;;;;;;;;;5063055;28;20341;-67
2022/10/11 00:23:48;;;;;;;;;;;;;;;;;;5095567;28;20387;-68
2022/10/11 00:26:13;;;;;;;;;;;;;;;;;;5072331;28;20330;-68
2022/10/11 00:28:38;;;;;;;;;;;;;;;;;;5064585;28;20383;-68
2022/10/11 00:31:03;;;;;;;;;;;;;;;;;;5080971;28;19919;-69
2022/10/11 00:33:29;;;;;;;;;;;;;;;;;;5079445;28;19908;-68
2022/10/11 00:35:54;;;;;;;;;;;;;;;;;;5057121;28;19912;-69
2022/10/11 00:38:19;;;;;;;;;;;;;;;;;;5071837;28;19923;-67
2022/10/11 00:40:44;;;;;;;;;;;;;;;;;;5103522;28;19908;-68
2022/10/11 00:43:09;;;;;;;;;;;;;;;;;;5103360;28;19919;-68
2022/10/11 00:45:34;;;;;;;;;;;;;;;;;;5073904;28;19919;-69
2022/10/11 00:47:59;;;;;;;;;;;;;;;;;;5073390;28;19939;-68
2022/10/11 00:50:24;;;;;;;;;;;;;;;;;;5064367;28;19986;-68
2022/10/11 00:52:50;;;;;;;;;;;;;;;;;;5071886;28;19957;-68
2022/10/11 00:55:15;;;;;;;;;;;;;;;;;;5069607;28;19919;-67
2022/10/11 00:57:40;;;;;;;;;;;;;;;;;;5071444;28;19979;-68
2022/10/11 01:00:05;;;;;;;;;;;;;;;;;;5071373;28;19955;-67
2022/10/11 01:02:30;;;;;;;;;;;;;;;;;;5104420;28;19908;-68
2022/10/11 01:04:55;;;;;;;;;;;;;;;;;;5069233;28;19935;-67
2022/10/11 01:07:20;;;;;;;;;;;;;;;;;;5071342;28;20349;-70
2022/10/11 01:09:46;;;;;;;;;;;;;;;;;;5100431;28;19956;-68
2022/10/11 01:12:11;;;;;;;;;;;;;;;;;;5057638;28;19916;-69
2022/10/11 01:14:36;;;;;;;;;;;;;;;;;;5071046;28;20279;-68
2022/10/11 01:17:01;;;;;;;;;;;;;;;;;;5075132;28;19963;-69
2022/10/11 01:19:26;;;;;;;;;;;;;;;;;;5070730;28;19928;-67
2022/10/11 01:21:51;;;;;;;;;;;;;;;;;;5073010;28;19923;-66
2022/10/11 01:24:16;;;;;;;;;;;;;;;;;;5075731;28;20031;-68
2022/10/11 01:26:42;;;;;;;;;;;;;;;;;;5071059;28;19959;-68
2022/10/11 01:29:07;;;;;;;;;;;;;;;;;;5070829;28;19916;-67
2022/10/11 01:31:32;;;;;;;;;;;;;;;;;;5075503;28;20387;-68
2022/10/11 01:33:57;;;;;;;;;;;;;;;;;;5073207;28;20376;-68
2022/10/11 01:36:26;;;;;;;;;;;;;;;;;;5103895;28;19935;-69
2022/10/11 01:38:51;;;;;;;;;;;;;;;;;;5071610;28;19962;-67
2022/10/11 01:41:16;;;;;;;;;;;;;;;;;;5055505;28;20342;-67
2022/10/11 01:43:41;;;;;;;;;;;;;;;;;;5055055;28;19909;-68
2022/10/11 01:46:07;;;;;;;;;;;;;;;;;;5068702;28;19916;-68
2022/10/11 01:48:32;;;;;;;;;;;;;;;;;;5071517;28;19996;-68
2022/10/11 01:50:57;;;;;;;;;;;;;;;;;;5067885;28;19917;-64
2022/10/11 01:53:22;;;;;;;;;;;;;;;;;;5073398;28;19920;-66
2022/10/11 01:55:47;;;;;;;;;;;;;;;;;;5077684;28;20014;-67
2022/10/11 01:58:13;;;;;;;;;;;;;;;;;;5070906;28;19916;-68
2022/10/11 02:00:38;;;;;;;;;;;;;;;;;;5106644;28;20277;-68
2022/10/11 02:03:03;;;;;;;;;;;;;;;;;;5073686;28;19912;-68
2022/10/11 02:05:28;;;;;;;;;;;;;;;;;;5072609;28;19924;-69
2022/10/11 02:07:53;;;;;;;;;;;;;;;;;;5073539;28;20387;-68
2022/10/11 02:10:18;;;;;;;;;;;;;;;;;;5072317;28;20007;-66
2022/10/11 02:12:44;;;;;;;;;;;;;;;;;;5073502;28;19912;-67
2022/10/11 02:15:09;;;;;;;;;;;;;;;;;;5073963;28;19913;-68
2022/10/11 02:17:34;;;;;;;;;;;;;;;;;;5074016;28;19935;-69
2022/10/11 02:19:59;;;;;;;;;;;;;;;;;;5061091;28;19912;-68
2022/10/11 02:22:24;;;;;;;;;;;;;;;;;;5072474;28;19995;-68
2022/10/11 02:24:49;;;;;;;;;;;;;;;;;;5070033;28;19981;-68
2022/10/11 02:27:14;;;;;;;;;;;;;;;;;;5073568;28;19920;-68
2022/10/11 02:29:40;;;;;;;;;;;;;;;;;;5070508;28;19959;-68
2022/10/11 02:32:05;;;;;;;;;;;;;;;;;;5070370;28;19908;-69
2022/10/11 02:34:30;;;;;;;;;;;;;;;;;;5085123;28;19948;-68
2022/10/11 02:36:55;;;;;;;;;;;;;;;;;;5072010;28;19916;-68
2022/10/11 02:39:20;;;;;;;;;;;;;;;;;;5070847;28;19920;-67
2022/10/11 02:41:45;;;;;;;;;;;;;;;;;;5106769;28;20006;-68
2022/10/11 02:44:10;;;;;;;;;;;;;;;;;;5105472;28;21348;-68
2022/10/11 02:46:35;;;;;;;;;;;;;;;;;;5072318;28;19920;-68
2022/10/11 02:49:01;;;;;;;;;;;;;;;;;;5068087;28;19920;-67
2022/10/11 02:51:26;;;;;;;;;;;;;;;;;;5065778;28;19959;-69
2022/10/11 02:53:51;;;;;;;;;;;;;;;;;;5059968;28;19919;-68
2022/10/11 02:56:16;;;;;;;;;;;;;;;;;;5071980;28;19931;-69
2022/10/11 02:58:41;;;;;;;;;;;;;;;;;;5072266;28;19912;-69
2022/10/11 03:01:06;;;;;;;;;;;;;;;;;;5071090;28;19913;-68
2022/10/11 03:03:31;;;;;;;;;;;;;;;;;;5076559;28;19919;-68
2022/10/11 03:05:57;;;;;;;;;;;;;;;;;;5083661;28;19916;-68
2022/10/11 03:08:22;;;;;;;;;;;;;;;;;;5072674;28;19913;-67
2022/10/11 03:10:47;;;;;;;;;;;;;;;;;;5069782;28;19916;-66
2022/10/11 03:13:12;;;;;;;;;;;;;;;;;;5072563;28;19913;-68
2022/10/11 03:15:37;;;;;;;;;;;;;;;;;;5072735;28;20345;-67
2022/10/11 03:18:02;;;;;;;;;;;;;;;;;;5072449;28;20365;-68
2022/10/11 03:20:27;;;;;;;;;;;;;;;;;;5066285;28;19917;-68
2022/10/11 03:22:52;;;;;;;;;;;;;;;;;;5071193;28;19963;-69
2022/10/11 03:25:18;;;;;;;;;;;;;;;;;;5072438;28;19908;-67
2022/10/11 03:27:43;;;;;;;;;;;;;;;;;;5067069;28;20369;-68
2022/10/11 03:30:08;;;;;;;;;;;;;;;;;;5066218;28;20391;-68
2022/10/11 03:32:34;;;;;;;;;;;;;;;;;;5070700;28;19987;-68
2022/10/11 03:34:59;;;;;;;;;;;;;;;;;;5073079;28;19931;-68
2022/10/11 03:37:24;;;;;;;;;;;;;;;;;;5069701;28;19912;-69
2022/10/11 03:39:49;;;;;;;;;;;;;;;;;;5104431;28;19908;-69
2022/10/11 03:42:14;;;;;;;;;;;;;;;;;;5055011;28;20330;-67
2022/10/11 03:44:40;;;;;;;;;;;;;;;;;;5071259;28;19936;-68
2022/10/11 03:47:06;;;;;;;;;;;;;;;;;;5066616;28;19932;-68
2022/10/11 03:49:31;;;;;;;;;;;;;;;;;;5062770;28;19916;-68
2022/10/11 03:51:56;;;;;;;;;;;;;;;;;;5070348;28;20474;-66
2022/10/11 03:54:21;;;;;;;;;;;;;;;;;;5068569;28;19917;-69
2022/10/11 03:56:46;;;;;;;;;;;;;;;;;;5075766;28;19919;-67
2022/10/11 03:59:11;;;;;;;;;;;;;;;;;;5101580;28;19912;-68
2022/10/11 04:01:37;;;;;;;;;;;;;;;;;;5073015;28;19944;-68
2022/10/11 04:04:02;;;;;;;;;;;;;;;;;;5070372;28;19924;-68
2022/10/11 04:06:27;;;;;;;;;;;;;;;;;;5070060;28;19966;-69
2022/10/11 04:08:52;;;;;;;;;;;;;;;;;;5062191;28;19969;-67
2022/10/11 04:11:17;;;;;;;;;;;;;;;;;;5064072;28;20355;-68
2022/10/11 04:13:43;;;;;;;;;;;;;;;;;;5061473;28;20288;-68
2022/10/11 04:16:08;;;;;;;;;;;;;;;;;;5069426;28;20288;-67
2022/10/11 04:18:33;;;;;;;;;;;;;;;;;;5070150;28;19970;-68
2022/10/11 04:20:58;;;;;;;;;;;;;;;;;;5064623;28;19916;-68
2022/10/11 04:23:23;;;;;;;;;;;;;;;;;;5069289;28;19920;-68
2022/10/11 04:25:48;;;;;;;;;;;;;;;;;;5071615;28;19931;-68
2022/10/11 04:28:14;;;;;;;;;;;;;;;;;;5069308;28;20284;-68
2022/10/11 04:30:39;;;;;;;;;;;;;;;;;;5073664;28;20369;-67
2022/10/11 04:33:04;;;;;;;;;;;;;;;;;;5082844;28;19934;-69
2022/10/11 04:35:29;;;;;;;;;;;;;;;;;;5077191;28;19986;-68
2022/10/11 04:37:55;;;;;;;;;;;;;;;;;;5068426;28;19919;-69
2022/10/11 04:40:20;;;;;;;;;;;;;;;;;;5071192;28;19912;-66
2022/10/11 04:42:45;;;;;;;;;;;;;;;;;;5062047;28;19936;-70
2022/10/11 04:45:10;;;;;;;;;;;;;;;;;;5100773;28;19923;-68
2022/10/11 04:47:35;;;;;;;;;;;;;;;;;;5083822;28;19919;-69
2022/10/11 04:50:01;;;;;;;;;;;;;;;;;;5071183;28;19971;-69
2022/10/11 04:52:26;;;;;;;;;;;;;;;;;;5070853;28;19920;-68
2022/10/11 04:54:51;;;;;;;;;;;;;;;;;;5075885;28;19912;-66
2022/10/11 04:57:16;;;;;;;;;;;;;;;;;;5071720;28;20273;-69
2022/10/11 04:59:41;;;;;;;;;;;;;;;;;;5065224;28;19919;-68
2022/10/11 05:02:06;;;;;;;;;;;;;;;;;;5064467;28;19986;-69
2022/10/11 05:04:31;;;;;;;;;;;;;;;;;;5068363;28;19955;-67
2022/10/11 05:06:57;;;;;;;;;;;;;;;;;;5066296;28;19917;-68
2022/10/11 05:09:22;;;;;;;;;;;;;;;;;;5101269;28;19920;-67
2022/10/11 05:11:47;;;;;;;;;;;;;;;;;;5067969;28;19995;-68
2022/10/11 05:14:12;;;;;;;;;;;;;;;;;;5070629;28;20342;-68
2022/10/11 05:16:37;;;;;;;;;;;;;;;;;;5068201;28;20331;-68
2022/10/11 05:19:03;;;;;;;;;;;;;;;;;;5068875;28;19921;-69
2022/10/11 05:21:28;;;;;;;;;;;;;;;;;;5073466;28;19923;-68
2022/10/11 05:23:54;;;;;;;;;;;;;;;;;;5100638;28;19909;-68
2022/10/11 05:26:19;;;;;;;;;;;;;;;;;;5059625;28;20463;-68
2022/10/11 05:28:44;;;;;;;;;;;;;;;;;;5067572;28;20010;-69
2022/10/11 05:31:10;;;;;;;;;;;;;;;;;;5075275;28;19913;-69
2022/10/11 05:33:35;;;;;;;;;;;;;;;;;;5094004;28;20105;-69
2022/10/11 05:36:00;;;;;;;;;;;;;;;;;;5072479;28;19916;-69
2022/10/11 05:38:25;;;;;;;;;;;;;;;;;;5074908;28;19912;-69
2022/10/11 05:40:51;;;;;;;;;;;;;;;;;;5074469;28;19919;-69
2022/10/11 05:43:16;;;;;;;;;;;;;;;;;;5100038;28;20015;-68
2022/10/11 05:45:41;;;;;;;;;;;;;;;;;;5107639;28;20412;-69
2022/10/11 05:48:06;;;;;;;;;;;;;;;;;;5075093;28;19913;-66
2022/10/11 05:50:32;;;;;;;;;;;;;;;;;;5100248;28;19913;-68
2022/10/11 05:52:57;;;;;;;;;;;;;;;;;;5106369;28;20376;-67
2022/10/11 05:55:22;;;;;;;;;;;;;;;;;;5070771;28;19912;-68
2022/10/11 05:57:47;;;;;;;;;;;;;;;;;;5107196;28;19909;-74
2022/10/11 06:00:12;;;;;;;;;;;;;;;;;;5074113;28;19908;-64
2022/10/11 06:02:37;;;;;;;;;;;;;;;;;;5074819;28;19919;-65
2022/10/11 06:05:03;;;;;;;;;;;;;;;;;;5070467;28;19919;-65
2022/10/11 06:07:28;;;;;;;;;;;;;;;;;;5072801;28;19923;-64
2022/10/11 06:09:53;;;;;;;;;;;;;;;;;;5080051;28;19950;-66
2022/10/11 06:12:20;;;;;;;;;;;;;;;;;;5089179;28;19927;-66
2022/10/11 06:14:45;;;;;;;;;;;;;;;;;;5062583;28;19913;-65
2022/10/11 06:17:10;;;;;;;;;;;;;;;;;;5054374;28;19963;-65
2022/10/11 06:19:35;;;;;;;;;;;;;;;;;;5059238;28;20391;-66
2022/10/11 06:22:01;;;;;;;;;;;;;;;;;;5097292;28;20377;-65
2022/10/11 06:24:26;;;;;;;;;;;;;;;;;;5067512;28;19913;-65
2022/10/11 06:26:51;;;;;;;;;;;;;;;;;;5077472;28;19924;-65
2022/10/11 06:29:16;;;;;;;;;;;;;;;;;;5089667;28;19962;-66
2022/10/11 06:31:42;;;;;;;;;;;;;;;;;;5061560;28;19999;-66
2022/10/11 06:34:07;;;;;;;;;;;;;;;;;;5057923;28;19912;-66
2022/10/11 06:36:32;;;;;;;;;;;;;;;;;;5072078;28;19919;-66
2022/10/11 06:39:00;;;;;;;;;;;;;;;;;;5073362;28;19908;-66
2022/10/11 06:41:25;;;;;;;;;;;;;;;;;;5072276;28;19905;-65
2022/10/11 06:43:50;;;;;;;;;;;;;;;;;;5111190;27;19919;-66
2022/10/11 06:46:15;;;;;;;;;;;;;;;;;;5073601;28;19916;-66
2022/10/11 06:48:40;;;;;;;;;;;;;;;;;;5069771;28;19951;-66
2022/10/11 06:51:06;;;;;;;;;;;;;;;;;;5071065;28;19912;-66
2022/10/11 06:53:31;;;;;;;;;;;;;;;;;;5072140;28;20272;-66
2022/10/11 06:55:56;;;;;;;;;;;;;;;;;;5069055;28;19936;-66
2022/10/11 06:58:21;;;;;;;;;;;;;;;;;;5073432;28;19920;-65
2022/10/11 07:00:46;;;;;;;;;;;;;;;;;;5077013;28;19916;-66
2022/10/11 07:03:11;;;;;;;;;;;;;;;;;;5063541;28;19920;-66
2022/10/11 07:05:36;;;;;;;;;;;;;;;;;;5072815;28;19916;-66
2022/10/11 07:08:01;;;;;;;;;;;;;;;;;;5104422;27;20003;-66
2022/10/11 07:10:27;;;;;;;;;;;;;;;;;;5070564;28;19944;-66
2022/10/11 07:12:52;;;;;;;;;;;;;;;;;;5066349;28;19920;-66
2022/10/11 07:15:17;;;;;;;;;;;;;;;;;;5057737;28;19909;-65
2022/10/11 07:17:42;;;;;;;;;;;;;;;;;;5094085;28;20007;-67
2022/10/11 07:20:07;;;;;;;;;;;;;;;;;;5055148;28;19963;-66
2022/10/11 07:22:32;;;;;;;;;;;;;;;;;;5070958;28;19909;-66
2022/10/11 07:24:57;;;;;;;;;;;;;;;;;;5078614;28;19943;-65
2022/10/11 07:27:23;;;;;;;;;;;;;;;;;;5070720;28;19927;-65
2022/10/11 07:29:48;;;;;;;;;;;;;;;;;;5086533;28;20427;-65
2022/10/11 07:32:15;;;;;;;;;;;;;;;;;;5071259;28;19913;-65
2022/10/11 07:34:40;;;;;;;;;;;;;;;;;;5071502;28;19912;-65
2022/10/11 07:37:05;;;;;;;;;;;;;;;;;;5067550;28;19920;-65
2022/10/11 07:39:30;;;;;;;;;;;;;;;;;;5084170;28;19963;-65
2022/10/11 07:41:55;;;;;;;;;;;;;;;;;;5070295;28;19914;-64
2022/10/11 07:44:20;;;;;;;;;;;;;;;;;;5077490;28;20380;-66
2022/10/11 07:46:46;;;;;;;;;;;;;;;;;;5105259;28;19912;-65
2022/10/11 07:49:11;;;;;;;;;;;;;;;;;;5058206;28;19913;-66
2022/10/11 07:51:36;;;;;;;;;;;;;;;;;;5067556;28;20002;-66
2022/10/11 07:54:01;;;;;;;;;;;;;;;;;;5068492;28;19949;-66
2022/10/11 07:56:26;;;;;;;;;;;;;;;;;;5072428;28;19916;-66
2022/10/11 07:58:51;;;;;;;;;;;;;;;;;;5067450;28;20007;-66
2022/10/11 08:01:16;;;;;;;;;;;;;;;;;;5072687;28;19916;-65
2022/10/11 08:03:42;;;;;;;;;;;;;;;;;;5069264;28;20003;-66
2022/10/11 08:06:07;;;;;;;;;;;;;;;;;;5070869;28;19912;-65
2022/10/11 08:08:32;;;;;;;;;;;;;;;;;;5069493;28;20364;-65
2022/10/11 08:10:57;;;;;;;;;;;;;;;;;;5069922;28;19918;-65
2022/10/11 08:13:23;;;;;;;;;;;;;;;;;;5069543;28;19920;-65
2022/10/11 08:15:48;;;;;;;;;;;;;;;;;;5101691;28;19999;-65
2022/10/11 08:18:13;;;;;;;;;;;;;;;;;;5070985;28;20356;-65
2022/10/11 08:20:38;;;;;;;;;;;;;;;;;;5062135;28;20389;-65
2022/10/11 08:23:03;;;;;;;;;;;;;;;;;;5068937;28;20403;-65
2022/10/11 08:25:28;;;;;;;;;;;;;;;;;;5068855;28;20357;-65
2022/10/11 08:27:54;;;;;;;;;;;;;;;;;;5067681;28;20270;-65
2022/10/11 08:30:19;;;;;;;;;;;;;;;;;;5066714;28;20003;-65
2022/10/11 08:32:44;;;;;;;;;;;;;;;;;;5069955;28;19948;-64
2022/10/11 08:35:09;;;;;;;;;;;;;;;;;;5070177;28;20011;-65
2022/10/11 08:37:34;;;;;;;;;;;;;;;;;;5067491;28;19912;-65
2022/10/11 08:40:02;;;;;;;;;;;;;;;;;;5067508;28;19917;-65
2022/10/11 08:42:27;;;;;;;;;;;;;;;;;;5071327;28;19995;-66
2022/10/11 08:44:52;;;;;;;;;;;;;;;;;;5070971;28;20012;-66
2022/10/11 08:47:17;;;;;;;;;;;;;;;;;;5071747;28;19920;-66
2022/10/11 08:49:42;;;;;;;;;;;;;;;;;;5066414;28;20388;-66
2022/10/11 08:52:08;;;;;;;;;;;;;;;;;;5069053;28;19917;-65
2022/10/11 08:54:33;;;;;;;;;;;;;;;;;;5069836;28;19912;-65
2022/10/11 08:56:58;;;;;;;;;;;;;;;;;;5066943;28;19920;-65
2022/10/11 08:59:23;;;;;;;;;;;;;;;;;;5067480;28;19919;-65
2022/10/11 09:01:48;;;;;;;;;;;;;;;;;;5071308;28;19918;-65
2022/10/11 09:04:13;;;;;;;;;;;;;;;;;;5071298;28;19916;-65
2022/10/11 09:06:38;;;;;;;;;;;;;;;;;;5070333;28;19917;-65
2022/10/11 09:09:04;;;;;;;;;;;;;;;;;;5069537;28;19912;-64
2022/10/11 09:11:29;;;;;;;;;;;;;;;;;;5069591;28;19912;-65
2022/10/11 09:13:54;;;;;;;;;;;;;;;;;;5074039;28;19915;-65
2022/10/11 09:16:19;;;;;;;;;;;;;;;;;;5067696;28;20003;-65
2022/10/11 09:18:44;;;;;;;;;;;;;;;;;;5067726;28;20285;-65
2022/10/11 09:21:09;;;;;;;;;;;;;;;;;;5065991;28;20380;-64
2022/10/11 09:23:35;;;;;;;;;;;;;;;;;;5065017;28;20369;-65
2022/10/11 09:26:00;;;;;;;;;;;;;;;;;;5068207;28;19929;-65
2022/10/11 09:28:27;;;;;;;;;;;;;;;;;;5069087;28;20307;-64
2022/10/11 09:30:53;;;;;;;;;;;;;;;;;;5068671;28;19913;-65
2022/10/11 09:33:18;;;;;;;;;;;;;;;;;;5061215;28;19923;-66
2022/10/11 09:35:43;;;;;;;;;;;;;;;;;;5056963;28;19919;-65
2022/10/11 09:38:08;;;;;;;;;;;;;;;;;;5073806;28;19920;-65
2022/10/11 09:40:33;;;;;;;;;;;;;;;;;;5105461;28;19931;-65
2022/10/11 09:42:58;;;;;;;;;;;;;;;;;;5072015;28;19918;-65
2022/10/11 09:45:24;;;;;;;;;;;;;;;;;;5100613;28;20381;-65
2022/10/11 09:47:49;;;;;;;;;;;;;;;;;;5068914;28;19912;-65
2022/10/11 09:50:14;;;;;;;;;;;;;;;;;;5070058;28;19919;-65
2022/10/11 09:52:39;;;;;;;;;;;;;;;;;;5075344;28;20434;-66
2022/10/11 09:55:04;;;;;;;;;;;;;;;;;;5070667;28;20387;-65
2022/10/11 09:57:29;;;;;;;;;;;;;;;;;;5063470;28;19913;-65
2022/10/11 09:59:54;;;;;;;;;;;;;;;;;;5073598;28;19908;-65
2022/10/11 10:02:20;;;;;;;;;;;;;;;;;;5071466;28;19912;-65
2022/10/11 10:04:45;;;;;;;;;;;;;;;;;;5065797;28;19920;-65
2022/10/11 10:07:11;;;;;;;;;;;;;;;;;;5106151;28;20379;-65
2022/10/11 10:09:36;;;;;;;;;;;;;;;;;;5069788;28;19919;-64
2022/10/11 10:12:02;;;;;;;;;;;;;;;;;;5107052;28;19909;-64
2022/10/11 10:14:27;;;;;;;;;;;;;;;;;;5097332;28;20163;-65
2022/10/11 10:16:52;;;;;;;;;;;;;;;;;;5065587;28;19995;-64
2022/10/11 10:19:17;;;;;;;;;;;;;;;;;;5056403;28;20365;-64
2022/10/11 10:21:42;;;;;;;;;;;;;;;;;;5087440;28;19920;-64
2022/10/11 10:24:07;;;;;;;;;;;;;;;;;;5072344;28;19940;-65
2022/10/11 10:26:32;;;;;;;;;;;;;;;;;;5070103;28;20392;-65
2022/10/11 10:28:58;;;;;;;;;;;;;;;;;;5105783;28;19916;-65
2022/10/11 10:31:23;;;;;;;;;;;;;;;;;;5073101;28;20011;-65
2022/10/11 10:33:48;;;;;;;;;;;;;;;;;;5073056;28;20273;-64
2022/10/11 10:36:13;;;;;;;;;;;;;;;;;;5069653;28;19913;-64
2022/10/11 10:38:39;;;;;;;;;;;;;;;;;;5069212;28;19975;-65
2022/10/11 10:41:04;;;;;;;;;;;;;;;;;;5055075;28;20003;-65
2022/10/11 10:43:29;;;;;;;;;;;;;;;;;;5073786;28;19908;-65
2022/10/11 10:45:54;;;;;;;;;;;;;;;;;;5071084;28;19966;-65
2022/10/11 10:48:19;;;;;;;;;;;;;;;;;;5053623;28;19935;-65
2022/10/11 10:50:44;;;;;;;;;;;;;;;;;;5058115;28;19912;-65
2022/10/11 10:53:09;;;;;;;;;;;;;;;;;;5070522;28;19919;-65
2022/10/11 10:55:35;;;;;;;;;;;;;;;;;;5070288;28;20003;-65
2022/10/11 10:58:00;;;;;;;;;;;;;;;;;;5069177;28;19947;-63
2022/10/11 11:00:25;;;;;;;;;;;;;;;;;;5073681;28;19999;-64
2022/10/11 11:02:50;;;;;;;;;;;;;;;;;;5071260;28;19920;-65
2022/10/11 11:05:16;;;;;;;;;;;;;;;;;;5073553;28;19934;-65
2022/10/11 11:07:42;;;;;;;;;;;;;;;;;;5090562;28;19925;-65
2022/10/11 11:10:07;;;;;;;;;;;;;;;;;;5068923;28;20329;-64
2022/10/11 11:12:32;;;;;;;;;;;;;;;;;;5102216;28;19959;-64
2022/10/11 11:14:57;;;;;;;;;;;;;;;;;;5060965;28;19912;-64
2022/10/11 11:17:22;;;;;;;;;;;;;;;;;;5068348;28;19912;-65
2022/10/11 11:19:47;;;;;;;;;;;;;;;;;;5064357;28;20032;-64
2022/10/11 11:22:13;;;;;;;;;;;;;;;;;;5055171;28;20299;-65
2022/10/11 11:24:38;;;;;;;;;;;;;;;;;;5071461;28;19909;-65
2022/10/11 11:27:03;;;;;;;;;;;;;;;;;;5054176;28;19917;-64
2022/10/11 11:29:28;;;;;;;;;;;;;;;;;;5064487;28;19920;-64
2022/10/11 11:31:53;;;;;;;;;;;;;;;;;;5072480;28;20388;-64
2022/10/11 11:34:18;;;;;;;;;;;;;;;;;;5072089;28;19913;-64
2022/10/11 11:36:43;;;;;;;;;;;;;;;;;;5072843;28;19914;-63
2022/10/11 11:39:09;;;;;;;;;;;;;;;;;;5064937;28;20024;-63
2022/10/11 11:41:34;;;;;;;;;;;;;;;;;;5069044;28;19912;-63
2022/10/11 11:43:59;;;;;;;;;;;;;;;;;;5063495;28;19913;-63
2022/10/11 11:46:24;;;;;;;;;;;;;;;;;;5055335;28;19955;-64
2022/10/11 11:48:49;;;;;;;;;;;;;;;;;;5101424;28;19927;-64
2022/10/11 11:51:14;;;;;;;;;;;;;;;;;;5067122;28;20958;-64
2022/10/11 11:53:39;;;;;;;;;;;;;;;;;;5071456;28;19912;-64
2022/10/11 11:56:06;;;;;;;;;;;;;;;;;;5063749;28;20017;-63
2022/10/11 11:58:31;;;;;;;;;;;;;;;;;;5071118;28;19916;-64
2022/10/11 12:00:56;;;;;;;;;;;;;;;;;;5098953;28;20050;-63
2022/10/11 12:03:21;;;;;;;;;;;;;;;;;;5069093;28;19912;-64
2022/10/11 12:05:46;;;;;;;;;;;;;;;;;;5070661;28;19916;-64
2022/10/11 12:08:11;;;;;;;;;;;;;;;;;;5071929;28;19979;-63
2022/10/11 12:10:36;;;;;;;;;;;;;;;;;;5066244;28;20348;-63
2022/10/11 12:13:02;;;;;;;;;;;;;;;;;;5098431;28;20465;-64
2022/10/11 12:15:27;;;;;;;;;;;;;;;;;;5052354;28;19909;-64
2022/10/11 12:17:52;;;;;;;;;;;;;;;;;;5071166;28;19913;-64
2022/10/11 12:20:17;;;;;;;;;;;;;;;;;;5065712;28;19916;-63
2022/10/11 12:22:42;;;;;;;;;;;;;;;;;;5069992;28;19951;-63
2022/10/11 12:25:08;;;;;;;;;;;;;;;;;;5059195;28;20270;-63
2022/10/11 12:27:33;;;;;;;;;;;;;;;;;;5087644;28;20359;-63
2022/10/11 12:29:58;;;;;;;;;;;;;;;;;;5072220;28;19909;-63
2022/10/11 12:32:23;;;;;;;;;;;;;;;;;;5067364;28;19912;-62
2022/10/11 12:34:48;;;;;;;;;;;;;;;;;;5070584;28;20325;-63
2022/10/11 12:37:13;;;;;;;;;;;;;;;;;;5063279;28;19913;-63
2022/10/11 12:39:38;;;;;;;;;;;;;;;;;;5067655;28;19947;-62
2022/10/11 12:42:03;;;;;;;;;;;;;;;;;;5070290;28;20324;-62
2022/10/11 12:44:29;;;;;;;;;;;;;;;;;;5062982;28;19913;-62
2022/10/11 12:46:54;;;;;;;;;;;;;;;;;;5071963;28;19912;-63
2022/10/11 12:49:19;;;;;;;;;;;;;;;;;;5068754;28;20003;-64
2022/10/11 12:51:44;;;;;;;;;;;;;;;;;;5058724;28;19912;-63
2022/10/11 12:54:09;;;;;;;;;;;;;;;;;;5070251;28;19982;-63
2022/10/11 12:56:34;;;;;;;;;;;;;;;;;;5071172;28;20288;-63
2022/10/11 12:58:59;;;;;;;;;;;;;;;;;;5060022;28;19956;-63
2022/10/11 13:01:25;;;;;;;;;;;;;;;;;;5080690;28;19909;-64
2022/10/11 13:03:51;;;;;;;;;;;;;;;;;;5067984;28;19917;-63
2022/10/11 13:06:17;;;;;;;;;;;;;;;;;;5066980;28;20369;-63
2022/10/11 13:08:42;;;;;;;;;;;;;;;;;;5071148;28;19999;-63
2022/10/11 13:11:07;;;;;;;;;;;;;;;;;;5105617;28;20365;-63
2022/10/11 13:13:32;;;;;;;;;;;;;;;;;;5075432;28;20443;-63
2022/10/11 13:15:57;;;;;;;;;;;;;;;;;;5073025;28;19919;-62
2022/10/11 13:18:23;;;;;;;;;;;;;;;;;;5068641;28;19912;-64
2022/10/11 13:20:48;;;;;;;;;;;;;;;;;;5073700;28;19916;-63
2022/10/11 13:23:13;;;;;;;;;;;;;;;;;;5061774;28;19925;-64
2022/10/11 13:25:38;;;;;;;;;;;;;;;;;;5066918;28;20376;-64
2022/10/11 13:28:03;;;;;;;;;;;;;;;;;;5097726;28;19939;-63
2022/10/11 13:30:28;;;;;;;;;;;;;;;;;;5081193;28;19999;-63
2022/10/11 13:32:53;;;;;;;;;;;;;;;;;;5075133;28;19912;-63
2022/10/11 13:35:19;;;;;;;;;;;;;;;;;;5072713;28;19928;-63
2022/10/11 13:37:44;;;;;;;;;;;;;;;;;;5066341;28;20599;-64
2022/10/11 13:40:09;;;;;;;;;;;;;;;;;;5074237;28;19962;-64
2022/10/11 13:42:35;;;;;;;;;;;;;;;;;;5107696;28;19909;-64
2022/10/11 13:45:00;;;;;;;;;;;;;;;;;;5074775;28;19908;-63
2022/10/11 13:47:25;;;;;;;;;;;;;;;;;;5068256;28;19922;-64
2022/10/11 13:49:53;;;;;;;;;;;;;;;;;;5062336;28;19917;-64
2022/10/11 13:52:18;;;;;;;;;;;;;;;;;;5072846;28;20408;-64
2022/10/11 13:54:44;;;;;;;;;;;;;;;;;;5106212;28;20012;-64
2022/10/11 13:57:09;;;;;;;;;;;;;;;;;;5073631;28;19936;-64
2022/10/11 13:59:34;;;;;;;;;;;;;;;;;;5071619;28;19917;-64
2022/10/11 14:01:59;;;;;;;;;;;;;;;;;;5073813;28;19913;-64
2022/10/11 14:04:24;;;;;;;;;;;;;;;;;;5054329;28;19909;-65
2022/10/11 14:06:49;;;;;;;;;;;;;;;;;;5063607;28;20038;-64
2022/10/11 14:09:15;;;;;;;;;;;;;;;;;;5066064;28;20007;-64
2022/10/11 14:11:40;;;;;;;;;;;;;;;;;;5064865;28;19913;-64
2022/10/11 14:14:05;;;;;;;;;;;;;;;;;;5074366;28;19908;-63
2022/10/11 14:16:30;;;;;;;;;;;;;;;;;;5073865;28;19913;-64
2022/10/11 14:18:55;;;;;;;;;;;;;;;;;;5065521;28;19912;-64
2022/10/11 14:21:20;;;;;;;;;;;;;;;;;;5059040;28;19964;-64
2022/10/11 14:23:45;;;;;;;;;;;;;;;;;;5106467;28;20381;-64
2022/10/11 14:26:11;;;;;;;;;;;;;;;;;;5073322;28;19924;-64
2022/10/11 14:28:36;;;;;;;;;;;;;;;;;;5065306;28;19913;-65
2022/10/11 14:31:01;;;;;;;;;;;;;;;;;;5073483;28;20011;-65
2022/10/11 14:33:26;;;;;;;;;;;;;;;;;;5106078;28;19939;-65
2022/10/11 14:35:51;;;;;;;;;;;;;;;;;;5073761;28;19958;-66
2022/10/11 14:38:16;;;;;;;;;;;;;;;;;;5072035;28;19912;-64
2022/10/11 14:40:41;;;;;;;;;;;;;;;;;;5069514;28;19951;-64
2022/10/11 14:43:06;;;;;;;;;;;;;;;;;;5056065;28;19912;-66
2022/10/11 14:45:32;;;;;;;;;;;;;;;;;;5072316;28;19908;-63
2022/10/11 14:47:57;;;;;;;;;;;;;;;;;;5073246;28;19955;-66
2022/10/11 14:50:22;;;;;;;;;;;;;;;;;;5067740;28;19917;-65
2022/10/11 14:52:47;;;;;;;;;;;;;;;;;;5080903;28;19912;-68
2022/10/11 14:55:12;;;;;;;;;;;;;;;;;;5083617;28;20054;-65
2022/10/11 14:57:37;;;;;;;;;;;;;;;;;;5087802;28;19917;-66
2022/10/11 15:00:02;;;;;;;;;;;;;;;;;;5069924;28;20007;-66
2022/10/11 15:02:28;;;;;;;;;;;;;;;;;;5103276;28;19912;-66
2022/10/11 15:04:53;;;;;;;;;;;;;;;;;;5073326;28;19916;-66
2022/10/11 15:07:18;;;;;;;;;;;;;;;;;;5096011;28;19916;-65
2022/10/11 15:09:43;;;;;;;;;;;;;;;;;;5058983;28;19955;-67
2022/10/11 15:12:08;;;;;;;;;;;;;;;;;;5072740;28;19920;-67
2022/10/11 15:14:33;;;;;;;;;;;;;;;;;;5073063;28;20380;-66
2022/10/11 15:16:59;;;;;;;;;;;;;;;;;;5060332;28;20174;-66
2022/10/11 15:19:24;;;;;;;;;;;;;;;;;;5069251;28;20283;-65
2022/10/11 15:21:49;;;;;;;;;;;;;;;;;;5065015;28;20296;-66
2022/10/11 15:24:14;;;;;;;;;;;;;;;;;;5065971;28;19934;-65
2022/10/11 15:26:41;;;;;;;;;;;;;;;;;;5071752;28;20131;-66
2022/10/11 15:29:08;;;;;;;;;;;;;;;;;;5071565;28;19916;-65
2022/10/11 15:31:33;;;;;;;;;;;;;;;;;;5070938;28;19955;-66
2022/10/11 15:34:00;;;;;;;;;;;;;;;;;;5061738;28;20356;-66
2022/10/11 15:36:25;;;;;;;;;;;;;;;;;;5059411;28;19912;-66
2022/10/11 15:38:50;;;;;;;;;;;;;;;;;;5072347;28;20029;-66
2022/10/11 15:41:16;;;;;;;;;;;;;;;;;;5073089;28;19966;-66
2022/10/11 15:43:41;;;;;;;;;;;;;;;;;;5057419;28;20003;-66
2022/10/11 15:46:06;;;;;;;;;;;;;;;;;;5092337;28;19995;-66
2022/10/11 15:48:32;;;;;;;;;;;;;;;;;;5086514;28;19921;-65
2022/10/11 15:50:58;;;;;;;;;;;;;;;;;;5084694;28;19913;-65
2022/10/11 15:53:24;;;;;;;;;;;;;;;;;;5071021;28;19917;-65
2022/10/11 15:55:49;;;;;;;;;;;;;;;;;;5060335;28;19913;-65
2022/10/11 15:58:14;;;;;;;;;;;;;;;;;;5073686;28;19916;-65
2022/10/11 16:00:40;;;;;;;;;;;;;;;;;;5072840;28;20014;-65
2022/10/11 16:03:05;;;;;;;;;;;;;;;;;;5072110;28;19928;-66
2022/10/11 16:05:30;;;;;;;;;;;;;;;;;;5090897;28;19912;-65
2022/10/11 16:07:55;;;;;;;;;;;;;;;;;;5069489;28;19920;-65
2022/10/11 16:10:20;;;;;;;;;;;;;;;;;;5066798;28;19920;-66
2022/10/11 16:12:45;;;;;;;;;;;;;;;;;;5054659;28;19922;-66
2022/10/11 16:15:11;;;;;;;;;;;;;;;;;;5105893;27;19916;-66
2022/10/11 16:17:36;;;;;;;;;;;;;;;;;;5055339;28;19913;-66
2022/10/11 16:20:01;;;;;;;;;;;;;;;;;;5090573;28;19995;-66
2022/10/11 16:22:27;;;;;;;;;;;;;;;;;;5098898;28;19989;-66
2022/10/11 16:24:52;;;;;;;;;;;;;;;;;;5063589;28;19912;-66
2022/10/11 16:27:17;;;;;;;;;;;;;;;;;;5094183;28;19967;-66
2022/10/11 16:29:42;;;;;;;;;;;;;;;;;;5102583;28;19919;-66
2022/10/11 16:32:07;;;;;;;;;;;;;;;;;;5079966;28;19924;-66